Etusivu
METAR-TAF:

METAR-TAF

Lentoasemat :

Beni Mellal, Marokko

Leveyspiiri: 32-24-00N, Pituuspiiri: 06-19-00W, korkeus merenpinnasta: 518 m

Tämänhetkinen sää

Tämä raportti tehtiin 11 minuuttia sitten, kello 14.00 UTC
Tuuli 11 kn lännestä/lounaasta
Lämpötila 31°C
Kosteus 31%
Ilmanpaine 1017 hPa
Näkyvyys 10 km tai enemmän
ei pilviä alle 1500 m:ssä eikä cumulonimbus-pilviä

METAR: GMMD 251400Z 24011KT CAVOK 31/12 Q1017 NOSIG

Aika: 15:11 (14:11 UTC)


TAF: puuttuu

Säähavainnot ja -ennusteet yli 4000 lentoasemalta (METAR- ja TAF-raportit).

Käytössä olevat sääasemat on merkitty karttaan keltaisilla ja punaisilla pisteillä.

Aseta hiiri pisteen päälle nähdäksesi sääaseman nimen.

Klikkaa sitten nähdäksesi säähavainnot ja -ennusteet.

Kartan vaihtaminen: klikkaa mustalla rastilla varustettuja vihreitä pisteitä, niin voit zoomata sisään; viivalla varustettua vihreää pistettä, niin voit zoomata ulos tai vihreitä nuolia, niin pääset viereisille kartoille.


METAR-TAF: